sensor_id;sensor_type;location;lat;lon;timestamp;P1;durP1;ratioP1;P2;durP2;ratioP2
48727;SDS011;34527;45.618;5.130;2022-12-29T00:01:29;17.90;;;9.65;;
48727;SDS011;34527;45.618;5.130;2022-12-29T00:03:55;13.90;;;9.27;;
48727;SDS011;34527;45.618;5.130;2022-12-29T00:06:21;14.60;;;9.63;;
48727;SDS011;34527;45.618;5.130;2022-12-29T00:08:47;21.67;;;10.05;;
48727;SDS011;34527;45.618;5.130;2022-12-29T00:11:17;13.15;;;9.27;;
48727;SDS011;34527;45.618;5.130;2022-12-29T00:13:45;17.48;;;9.52;;
48727;SDS011;34527;45.618;5.130;2022-12-29T00:16:30;12.00;;;8.90;;
48727;SDS011;34527;45.618;5.130;2022-12-29T00:18:57;19.77;;;9.48;;
48727;SDS011;34527;45.618;5.130;2022-12-29T00:21:23;14.80;;;9.65;;
48727;SDS011;34527;45.618;5.130;2022-12-29T00:24:13;15.50;;;8.93;;
48727;SDS011;34527;45.618;5.130;2022-12-29T00:26:58;15.32;;;9.02;;
48727;SDS011;34527;45.618;5.130;2022-12-29T00:29:45;11.48;;;8.80;;
48727;SDS011;34527;45.618;5.130;2022-12-29T00:32:30;15.77;;;9.07;;
48727;SDS011;34527;45.618;5.130;2022-12-29T00:35:18;15.60;;;9.30;;
48727;SDS011;34527;45.618;5.130;2022-12-29T00:37:50;13.23;;;8.38;;
48727;SDS011;34527;45.618;5.130;2022-12-29T00:40:35;12.73;;;8.73;;
48727;SDS011;34527;45.618;5.130;2022-12-29T00:43:19;12.80;;;8.67;;
48727;SDS011;34527;45.618;5.130;2022-12-29T00:46:03;13.95;;;8.13;;
48727;SDS011;34527;45.618;5.130;2022-12-29T00:48:29;14.07;;;8.57;;
48727;SDS011;34527;45.618;5.130;2022-12-29T00:51:13;17.88;;;9.00;;
48727;SDS011;34527;45.618;5.130;2022-12-29T00:53:39;14.45;;;8.75;;
48727;SDS011;34527;45.618;5.130;2022-12-29T00:56:05;15.20;;;8.75;;
48727;SDS011;34527;45.618;5.130;2022-12-29T00:58:31;15.68;;;8.93;;
48727;SDS011;34527;45.618;5.130;2022-12-29T01:01:00;13.20;;;8.70;;
48727;SDS011;34527;45.618;5.130;2022-12-29T01:03:27;13.82;;;8.50;;
48727;SDS011;34527;45.618;5.130;2022-12-29T01:05:53;14.98;;;8.38;;
48727;SDS011;34527;45.618;5.130;2022-12-29T01:08:19;14.40;;;8.25;;
48727;SDS011;34527;45.618;5.130;2022-12-29T01:10:45;11.65;;;7.80;;
48727;SDS011;34527;45.618;5.130;2022-12-29T01:13:10;16.70;;;8.52;;
48727;SDS011;34527;45.618;5.130;2022-12-29T01:15:36;11.13;;;7.25;;
48727;SDS011;34527;45.618;5.130;2022-12-29T01:18:02;14.23;;;8.38;;
48727;SDS011;34527;45.618;5.130;2022-12-29T01:20:28;15.93;;;7.72;;
48727;SDS011;34527;45.618;5.130;2022-12-29T01:22:54;10.63;;;8.07;;
48727;SDS011;34527;45.618;5.130;2022-12-29T01:25:19;15.85;;;7.47;;
48727;SDS011;34527;45.618;5.130;2022-12-29T01:27:45;9.40;;;7.15;;
48727;SDS011;34527;45.618;5.130;2022-12-29T01:30:11;15.88;;;8.32;;
48727;SDS011;34527;45.618;5.130;2022-12-29T01:32:37;10.82;;;7.70;;
48727;SDS011;34527;45.618;5.130;2022-12-29T01:35:03;12.65;;;8.48;;
48727;SDS011;34527;45.618;5.130;2022-12-29T01:37:29;16.77;;;8.10;;
48727;SDS011;34527;45.618;5.130;2022-12-29T01:39:55;13.20;;;7.88;;
48727;SDS011;34527;45.618;5.130;2022-12-29T01:42:22;16.05;;;8.00;;
48727;SDS011;34527;45.618;5.130;2022-12-29T01:44:57;13.30;;;7.72;;
48727;SDS011;34527;45.618;5.130;2022-12-29T01:49:53;9.38;;;6.85;;
48727;SDS011;34527;45.618;5.130;2022-12-29T01:52:21;8.43;;;7.53;;
48727;SDS011;34527;45.618;5.130;2022-12-29T01:54:50;10.88;;;7.10;;
48727;SDS011;34527;45.618;5.130;2022-12-29T01:57:21;10.10;;;7.20;;
48727;SDS011;34527;45.618;5.130;2022-12-29T01:59:53;10.05;;;6.70;;
48727;SDS011;34527;45.618;5.130;2022-12-29T02:02:26;19.67;;;7.15;;
48727;SDS011;34527;45.618;5.130;2022-12-29T02:04:53;12.65;;;7.10;;
48727;SDS011;34527;45.618;5.130;2022-12-29T02:07:22;14.32;;;7.53;;
48727;SDS011;34527;45.618;5.130;2022-12-29T02:09:51;9.80;;;7.00;;
48727;SDS011;34527;45.618;5.130;2022-12-29T02:12:19;12.40;;;7.30;;
48727;SDS011;34527;45.618;5.130;2022-12-29T02:14:47;12.38;;;7.65;;
48727;SDS011;34527;45.618;5.130;2022-12-29T02:17:26;11.77;;;7.78;;
48727;SDS011;34527;45.618;5.130;2022-12-29T02:20:22;13.43;;;8.20;;
48727;SDS011;34527;45.618;5.130;2022-12-29T02:34:13;13.65;;;8.77;;
48727;SDS011;34527;45.618;5.130;2022-12-29T02:37:00;12.68;;;9.00;;
48727;SDS011;34527;45.618;5.130;2022-12-29T02:42:43;14.30;;;9.02;;
48727;SDS011;34527;45.618;5.130;2022-12-29T02:50:51;15.85;;;8.95;;
48727;SDS011;34527;45.618;5.130;2022-12-29T02:53:26;11.68;;;7.97;;
48727;SDS011;34527;45.618;5.130;2022-12-29T02:56:13;11.35;;;7.80;;
48727;SDS011;34527;45.618;5.130;2022-12-29T02:58:39;11.55;;;7.22;;
48727;SDS011;34527;45.618;5.130;2022-12-29T03:09:26;12.15;;;7.00;;
48727;SDS011;34527;45.618;5.130;2022-12-29T03:11:59;12.85;;;6.35;;
48727;SDS011;34527;45.618;5.130;2022-12-29T03:14:33;9.65;;;7.00;;
48727;SDS011;34527;45.618;5.130;2022-12-29T03:17:27;12.75;;;6.28;;
48727;SDS011;34527;45.618;5.130;2022-12-29T03:20:10;9.37;;;6.73;;
48727;SDS011;34527;45.618;5.130;2022-12-29T03:22:44;12.35;;;6.57;;
48727;SDS011;34527;45.618;5.130;2022-12-29T03:25:18;11.82;;;6.95;;
48727;SDS011;34527;45.618;5.130;2022-12-29T03:27:53;13.32;;;6.55;;
48727;SDS011;34527;45.618;5.130;2022-12-29T03:30:22;9.50;;;5.65;;
48727;SDS011;34527;45.618;5.130;2022-12-29T03:32:50;8.57;;;5.80;;
48727;SDS011;34527;45.618;5.130;2022-12-29T03:35:20;13.13;;;5.57;;
48727;SDS011;34527;45.618;5.130;2022-12-29T03:37:55;13.30;;;5.28;;
48727;SDS011;34527;45.618;5.130;2022-12-29T03:40:27;9.73;;;5.05;;
48727;SDS011;34527;45.618;5.130;2022-12-29T03:42:55;9.68;;;5.30;;
48727;SDS011;34527;45.618;5.130;2022-12-29T03:45:22;10.60;;;5.13;;
48727;SDS011;34527;45.618;5.130;2022-12-29T03:47:48;8.73;;;5.05;;
48727;SDS011;34527;45.618;5.130;2022-12-29T03:50:14;8.73;;;5.10;;
48727;SDS011;34527;45.618;5.130;2022-12-29T03:52:40;6.90;;;4.82;;
48727;SDS011;34527;45.618;5.130;2022-12-29T03:55:05;7.63;;;4.95;;
48727;SDS011;34527;45.618;5.130;2022-12-29T03:57:32;9.25;;;5.18;;
48727;SDS011;34527;45.618;5.130;2022-12-29T03:59:57;8.88;;;4.57;;
48727;SDS011;34527;45.618;5.130;2022-12-29T04:02:23;8.48;;;4.63;;
48727;SDS011;34527;45.618;5.130;2022-12-29T04:04:49;7.45;;;4.45;;
48727;SDS011;34527;45.618;5.130;2022-12-29T04:07:15;9.27;;;4.10;;
48727;SDS011;34527;45.618;5.130;2022-12-29T04:09:41;7.07;;;5.00;;
48727;SDS011;34527;45.618;5.130;2022-12-29T04:12:06;8.10;;;5.13;;
48727;SDS011;34527;45.618;5.130;2022-12-29T04:14:32;9.13;;;4.78;;
48727;SDS011;34527;45.618;5.130;2022-12-29T04:16:58;10.93;;;5.20;;
48727;SDS011;34527;45.618;5.130;2022-12-29T04:19:24;11.32;;;4.47;;
48727;SDS011;34527;45.618;5.130;2022-12-29T04:21:50;6.63;;;4.57;;
48727;SDS011;34527;45.618;5.130;2022-12-29T04:24:16;7.55;;;4.53;;
48727;SDS011;34527;45.618;5.130;2022-12-29T04:26:42;9.32;;;4.40;;
48727;SDS011;34527;45.618;5.130;2022-12-29T04:29:07;8.20;;;4.88;;
48727;SDS011;34527;45.618;5.130;2022-12-29T04:31:33;9.30;;;4.25;;
48727;SDS011;34527;45.618;5.130;2022-12-29T04:33:59;6.68;;;4.03;;
48727;SDS011;34527;45.618;5.130;2022-12-29T04:36:25;9.13;;;4.60;;
48727;SDS011;34527;45.618;5.130;2022-12-29T04:38:51;6.20;;;4.15;;
48727;SDS011;34527;45.618;5.130;2022-12-29T04:41:17;6.88;;;4.40;;
48727;SDS011;34527;45.618;5.130;2022-12-29T04:43:43;9.38;;;4.38;;
48727;SDS011;34527;45.618;5.130;2022-12-29T04:46:09;6.85;;;4.50;;
48727;SDS011;34527;45.618;5.130;2022-12-29T04:48:35;5.55;;;4.53;;
48727;SDS011;34527;45.618;5.130;2022-12-29T04:51:01;8.00;;;4.30;;
48727;SDS011;34527;45.618;5.130;2022-12-29T04:53:27;7.38;;;4.70;;
48727;SDS011;34527;45.618;5.130;2022-12-29T04:55:52;6.28;;;4.15;;
48727;SDS011;34527;45.618;5.130;2022-12-29T04:58:20;6.10;;;4.45;;
48727;SDS011;34527;45.618;5.130;2022-12-29T05:00:46;8.55;;;4.43;;
48727;SDS011;34527;45.618;5.130;2022-12-29T05:03:11;9.45;;;4.78;;
48727;SDS011;34527;45.618;5.130;2022-12-29T05:05:37;9.02;;;4.53;;
48727;SDS011;34527;45.618;5.130;2022-12-29T05:08:03;8.55;;;4.88;;
48727;SDS011;34527;45.618;5.130;2022-12-29T05:10:29;9.90;;;5.53;;
48727;SDS011;34527;45.618;5.130;2022-12-29T05:12:55;8.85;;;4.72;;
48727;SDS011;34527;45.618;5.130;2022-12-29T05:15:22;10.80;;;5.20;;
48727;SDS011;34527;45.618;5.130;2022-12-29T05:17:48;9.57;;;4.97;;
48727;SDS011;34527;45.618;5.130;2022-12-29T05:20:14;8.52;;;5.32;;
48727;SDS011;34527;45.618;5.130;2022-12-29T05:22:40;8.65;;;4.53;;
48727;SDS011;34527;45.618;5.130;2022-12-29T05:25:06;7.18;;;4.30;;
48727;SDS011;34527;45.618;5.130;2022-12-29T05:27:32;7.50;;;4.68;;
48727;SDS011;34527;45.618;5.130;2022-12-29T05:29:58;7.22;;;4.20;;
48727;SDS011;34527;45.618;5.130;2022-12-29T05:32:24;6.38;;;4.20;;
48727;SDS011;34527;45.618;5.130;2022-12-29T05:34:50;8.75;;;4.40;;
48727;SDS011;34527;45.618;5.130;2022-12-29T05:37:15;7.95;;;4.47;;
48727;SDS011;34527;45.618;5.130;2022-12-29T05:39:41;8.65;;;4.60;;
48727;SDS011;34527;45.618;5.130;2022-12-29T05:42:07;7.70;;;4.43;;
48727;SDS011;34527;45.618;5.130;2022-12-29T05:44:33;7.32;;;4.50;;
48727;SDS011;34527;45.618;5.130;2022-12-29T05:46:59;6.43;;;4.38;;
48727;SDS011;34527;45.618;5.130;2022-12-29T05:49:25;7.32;;;4.97;;
48727;SDS011;34527;45.618;5.130;2022-12-29T05:51:51;9.90;;;4.78;;
48727;SDS011;34527;45.618;5.130;2022-12-29T05:54:17;9.00;;;4.65;;
48727;SDS011;34527;45.618;5.130;2022-12-29T05:56:42;7.53;;;4.72;;
48727;SDS011;34527;45.618;5.130;2022-12-29T05:59:08;6.60;;;4.15;;
48727;SDS011;34527;45.618;5.130;2022-12-29T06:01:34;9.38;;;4.63;;
48727;SDS011;34527;45.618;5.130;2022-12-29T06:04:00;7.47;;;4.57;;
48727;SDS011;34527;45.618;5.130;2022-12-29T06:06:26;8.82;;;4.30;;
48727;SDS011;34527;45.618;5.130;2022-12-29T06:08:52;5.57;;;3.88;;
48727;SDS011;34527;45.618;5.130;2022-12-29T06:11:18;5.85;;;3.95;;
48727;SDS011;34527;45.618;5.130;2022-12-29T06:13:44;5.72;;;4.03;;
48727;SDS011;34527;45.618;5.130;2022-12-29T06:16:09;7.55;;;4.18;;
48727;SDS011;34527;45.618;5.130;2022-12-29T06:18:35;6.55;;;4.22;;
48727;SDS011;34527;45.618;5.130;2022-12-29T06:21:02;8.52;;;3.97;;
48727;SDS011;34527;45.618;5.130;2022-12-29T06:23:30;9.52;;;3.97;;
48727;SDS011;34527;45.618;5.130;2022-12-29T06:25:56;9.13;;;4.72;;
48727;SDS011;34527;45.618;5.130;2022-12-29T06:28:22;5.53;;;4.00;;
48727;SDS011;34527;45.618;5.130;2022-12-29T06:30:48;13.20;;;4.85;;
48727;SDS011;34527;45.618;5.130;2022-12-29T06:33:14;8.90;;;4.65;;
48727;SDS011;34527;45.618;5.130;2022-12-29T06:35:43;7.22;;;4.10;;
48727;SDS011;34527;45.618;5.130;2022-12-29T06:38:10;9.48;;;4.15;;
48727;SDS011;34527;45.618;5.130;2022-12-29T06:40:37;6.38;;;4.47;;
48727;SDS011;34527;45.618;5.130;2022-12-29T06:43:03;9.50;;;4.32;;
48727;SDS011;34527;45.618;5.130;2022-12-29T06:45:28;9.65;;;4.43;;
48727;SDS011;34527;45.618;5.130;2022-12-29T06:47:54;7.50;;;4.30;;
48727;SDS011;34527;45.618;5.130;2022-12-29T06:50:20;6.20;;;4.20;;
48727;SDS011;34527;45.618;5.130;2022-12-29T06:52:46;6.35;;;4.78;;
48727;SDS011;34527;45.618;5.130;2022-12-29T06:55:12;5.63;;;4.20;;
48727;SDS011;34527;45.618;5.130;2022-12-29T06:57:37;5.70;;;3.70;;
48727;SDS011;34527;45.618;5.130;2022-12-29T07:00:03;7.50;;;4.25;;
48727;SDS011;34527;45.618;5.130;2022-12-29T07:02:30;6.00;;;4.10;;
48727;SDS011;34527;45.618;5.130;2022-12-29T07:04:56;7.82;;;3.90;;
48727;SDS011;34527;45.618;5.130;2022-12-29T07:07:22;11.00;;;4.50;;
48727;SDS011;34527;45.618;5.130;2022-12-29T07:09:47;6.95;;;3.78;;
48727;SDS011;34527;45.618;5.130;2022-12-29T07:12:13;8.10;;;4.15;;
48727;SDS011;34527;45.618;5.130;2022-12-29T07:14:39;8.32;;;4.50;;
48727;SDS011;34527;45.618;5.130;2022-12-29T07:17:05;7.28;;;4.18;;
48727;SDS011;34527;45.618;5.130;2022-12-29T07:19:31;8.00;;;4.25;;
48727;SDS011;34527;45.618;5.130;2022-12-29T07:21:58;6.13;;;4.10;;
48727;SDS011;34527;45.618;5.130;2022-12-29T07:24:24;6.55;;;4.07;;
48727;SDS011;34527;45.618;5.130;2022-12-29T07:26:54;8.75;;;3.88;;
48727;SDS011;34527;45.618;5.130;2022-12-29T07:29:20;6.65;;;3.72;;
48727;SDS011;34527;45.618;5.130;2022-12-29T07:31:46;7.72;;;3.45;;
48727;SDS011;34527;45.618;5.130;2022-12-29T07:34:12;7.65;;;4.85;;
48727;SDS011;34527;45.618;5.130;2022-12-29T07:36:38;7.90;;;3.63;;
48727;SDS011;34527;45.618;5.130;2022-12-29T07:39:03;6.10;;;3.55;;
48727;SDS011;34527;45.618;5.130;2022-12-29T07:41:29;6.75;;;3.72;;
48727;SDS011;34527;45.618;5.130;2022-12-29T07:43:55;7.32;;;4.07;;
48727;SDS011;34527;45.618;5.130;2022-12-29T07:46:21;5.32;;;3.83;;
48727;SDS011;34527;45.618;5.130;2022-12-29T07:48:47;8.35;;;4.00;;
48727;SDS011;34527;45.618;5.130;2022-12-29T07:51:13;6.32;;;3.97;;
48727;SDS011;34527;45.618;5.130;2022-12-29T07:53:38;7.35;;;3.53;;
48727;SDS011;34527;45.618;5.130;2022-12-29T07:56:04;3.85;;;3.45;;
48727;SDS011;34527;45.618;5.130;2022-12-29T07:58:31;5.15;;;3.63;;
48727;SDS011;34527;45.618;5.130;2022-12-29T08:00:57;7.22;;;4.10;;
48727;SDS011;34527;45.618;5.130;2022-12-29T08:03:23;5.68;;;3.78;;
48727;SDS011;34527;45.618;5.130;2022-12-29T08:05:52;6.07;;;3.95;;
48727;SDS011;34527;45.618;5.130;2022-12-29T08:08:18;8.13;;;3.55;;
48727;SDS011;34527;45.618;5.130;2022-12-29T08:10:45;5.10;;;3.80;;
48727;SDS011;34527;45.618;5.130;2022-12-29T08:13:10;10.77;;;4.03;;
48727;SDS011;34527;45.618;5.130;2022-12-29T08:15:37;6.40;;;3.90;;
48727;SDS011;34527;45.618;5.130;2022-12-29T08:18:04;5.63;;;3.70;;
48727;SDS011;34527;45.618;5.130;2022-12-29T08:20:30;8.32;;;3.83;;
48727;SDS011;34527;45.618;5.130;2022-12-29T08:22:55;6.25;;;3.80;;
48727;SDS011;34527;45.618;5.130;2022-12-29T08:25:21;5.85;;;3.67;;
48727;SDS011;34527;45.618;5.130;2022-12-29T08:27:47;7.07;;;3.75;;
48727;SDS011;34527;45.618;5.130;2022-12-29T08:30:13;4.95;;;3.08;;
48727;SDS011;34527;45.618;5.130;2022-12-29T08:32:39;9.90;;;3.78;;
48727;SDS011;34527;45.618;5.130;2022-12-29T08:35:05;5.15;;;3.33;;
48727;SDS011;34527;45.618;5.130;2022-12-29T08:37:32;6.65;;;4.03;;
48727;SDS011;34527;45.618;5.130;2022-12-29T08:39:58;6.38;;;3.78;;
48727;SDS011;34527;45.618;5.130;2022-12-29T08:42:28;5.88;;;3.72;;
48727;SDS011;34527;45.618;5.130;2022-12-29T08:44:56;5.10;;;3.55;;
48727;SDS011;34527;45.618;5.130;2022-12-29T08:47:25;6.38;;;3.42;;
48727;SDS011;34527;45.618;5.130;2022-12-29T08:49:51;12.70;;;3.90;;
48727;SDS011;34527;45.618;5.130;2022-12-29T08:52:17;10.00;;;3.75;;
48727;SDS011;34527;45.618;5.130;2022-12-29T08:54:43;4.53;;;3.55;;
48727;SDS011;34527;45.618;5.130;2022-12-29T08:57:09;8.38;;;3.50;;
48727;SDS011;34527;45.618;5.130;2022-12-29T08:59:35;5.15;;;3.42;;
48727;SDS011;34527;45.618;5.130;2022-12-29T09:02:02;8.95;;;3.70;;
48727;SDS011;34527;45.618;5.130;2022-12-29T09:04:36;7.05;;;3.33;;
48727;SDS011;34527;45.618;5.130;2022-12-29T09:07:02;5.07;;;3.40;;
48727;SDS011;34527;45.618;5.130;2022-12-29T09:09:28;7.18;;;3.30;;
48727;SDS011;34527;45.618;5.130;2022-12-29T09:11:55;8.27;;;3.72;;
48727;SDS011;34527;45.618;5.130;2022-12-29T09:14:27;7.17;;;3.60;;
48727;SDS011;34527;45.618;5.130;2022-12-29T09:16:53;6.28;;;3.13;;
48727;SDS011;34527;45.618;5.130;2022-12-29T09:19:38;6.13;;;3.22;;
48727;SDS011;34527;45.618;5.130;2022-12-29T09:22:04;5.95;;;3.60;;
48727;SDS011;34527;45.618;5.130;2022-12-29T09:24:30;5.80;;;3.42;;
48727;SDS011;34527;45.618;5.130;2022-12-29T09:26:56;6.90;;;3.80;;
48727;SDS011;34527;45.618;5.130;2022-12-29T09:29:21;6.85;;;3.55;;
48727;SDS011;34527;45.618;5.130;2022-12-29T09:31:48;10.63;;;4.07;;
48727;SDS011;34527;45.618;5.130;2022-12-29T09:34:14;10.73;;;3.70;;
48727;SDS011;34527;45.618;5.130;2022-12-29T09:36:40;6.57;;;3.67;;
48727;SDS011;34527;45.618;5.130;2022-12-29T09:39:06;6.93;;;3.35;;
48727;SDS011;34527;45.618;5.130;2022-12-29T09:41:36;10.57;;;3.13;;
48727;SDS011;34527;45.618;5.130;2022-12-29T09:44:22;5.20;;;3.58;;
48727;SDS011;34527;45.618;5.130;2022-12-29T09:46:56;6.43;;;3.45;;
48727;SDS011;34527;45.618;5.130;2022-12-29T09:52:04;7.95;;;3.20;;
48727;SDS011;34527;45.618;5.130;2022-12-29T09:57:20;7.10;;;2.85;;
48727;SDS011;34527;45.618;5.130;2022-12-29T09:59:47;10.75;;;3.35;;
48727;SDS011;34527;45.618;5.130;2022-12-29T10:04:54;7.45;;;3.22;;
48727;SDS011;34527;45.618;5.130;2022-12-29T10:12:34;4.68;;;2.60;;
48727;SDS011;34527;45.618;5.130;2022-12-29T10:15:12;6.47;;;2.60;;
48727;SDS011;34527;45.618;5.130;2022-12-29T10:18:20;8.15;;;2.95;;
48727;SDS011;34527;45.618;5.130;2022-12-29T10:21:22;8.15;;;3.42;;
48727;SDS011;34527;45.618;5.130;2022-12-29T10:24:07;7.18;;;2.67;;
48727;SDS011;34527;45.618;5.130;2022-12-29T10:26:41;4.90;;;2.78;;
48727;SDS011;34527;45.618;5.130;2022-12-29T10:29:13;6.60;;;3.08;;
48727;SDS011;34527;45.618;5.130;2022-12-29T10:34:39;5.85;;;3.17;;
48727;SDS011;34527;45.618;5.130;2022-12-29T10:37:17;7.00;;;2.80;;
48727;SDS011;34527;45.618;5.130;2022-12-29T10:39:49;8.88;;;3.20;;
48727;SDS011;34527;45.618;5.130;2022-12-29T10:44:55;5.05;;;2.80;;
48727;SDS011;34527;45.618;5.130;2022-12-29T10:47:26;8.80;;;3.22;;
48727;SDS011;34527;45.618;5.130;2022-12-29T10:49:54;9.27;;;2.88;;
48727;SDS011;34527;45.618;5.130;2022-12-29T10:52:23;5.13;;;2.95;;
48727;SDS011;34527;45.618;5.130;2022-12-29T10:57:28;7.32;;;3.00;;
48727;SDS011;34527;45.618;5.130;2022-12-29T10:59:57;6.15;;;2.90;;
48727;SDS011;34527;45.618;5.130;2022-12-29T11:07:24;4.47;;;2.85;;
48727;SDS011;34527;45.618;5.130;2022-12-29T11:09:51;8.38;;;3.42;;
48727;SDS011;34527;45.618;5.130;2022-12-29T11:12:27;6.35;;;2.70;;
48727;SDS011;34527;45.618;5.130;2022-12-29T11:17:45;7.00;;;3.08;;
48727;SDS011;34527;45.618;5.130;2022-12-29T11:22:53;6.80;;;3.20;;
48727;SDS011;34527;45.618;5.130;2022-12-29T11:25:19;7.95;;;3.10;;
48727;SDS011;34527;45.618;5.130;2022-12-29T11:27:59;5.68;;;3.20;;
48727;SDS011;34527;45.618;5.130;2022-12-29T11:30:39;8.40;;;3.08;;
48727;SDS011;34527;45.618;5.130;2022-12-29T11:33:05;7.13;;;2.90;;
48727;SDS011;34527;45.618;5.130;2022-12-29T11:35:33;8.63;;;3.70;;
48727;SDS011;34527;45.618;5.130;2022-12-29T11:38:01;5.82;;;2.95;;
48727;SDS011;34527;45.618;5.130;2022-12-29T11:40:29;5.93;;;2.63;;
48727;SDS011;34527;45.618;5.130;2022-12-29T11:42:57;8.23;;;3.45;;
48727;SDS011;34527;45.618;5.130;2022-12-29T11:45:31;11.80;;;2.97;;
48727;SDS011;34527;45.618;5.130;2022-12-29T11:48:15;8.35;;;3.35;;
48727;SDS011;34527;45.618;5.130;2022-12-29T11:50:48;8.35;;;3.45;;
48727;SDS011;34527;45.618;5.130;2022-12-29T11:56:12;9.32;;;2.90;;
48727;SDS011;34527;45.618;5.130;2022-12-29T11:58:41;8.18;;;3.17;;
48727;SDS011;34527;45.618;5.130;2022-12-29T12:01:13;11.77;;;3.05;;
48727;SDS011;34527;45.618;5.130;2022-12-29T12:03:48;6.55;;;2.90;;
48727;SDS011;34527;45.618;5.130;2022-12-29T12:06:34;8.25;;;3.10;;
48727;SDS011;34527;45.618;5.130;2022-12-29T12:09:07;8.55;;;3.10;;
48727;SDS011;34527;45.618;5.130;2022-12-29T12:11:40;7.03;;;2.90;;
48727;SDS011;34527;45.618;5.130;2022-12-29T12:14:20;10.02;;;3.28;;
48727;SDS011;34527;45.618;5.130;2022-12-29T12:16:52;8.23;;;3.10;;
48727;SDS011;34527;45.618;5.130;2022-12-29T12:19:32;7.28;;;2.72;;
48727;SDS011;34527;45.618;5.130;2022-12-29T12:22:10;8.52;;;3.38;;
48727;SDS011;34527;45.618;5.130;2022-12-29T12:24:50;8.98;;;3.42;;
48727;SDS011;34527;45.618;5.130;2022-12-29T12:27:24;7.50;;;3.20;;
48727;SDS011;34527;45.618;5.130;2022-12-29T12:32:47;10.43;;;3.42;;
48727;SDS011;34527;45.618;5.130;2022-12-29T12:44:16;6.57;;;3.22;;
48727;SDS011;34527;45.618;5.130;2022-12-29T12:47:15;10.32;;;3.30;;
48727;SDS011;34527;45.618;5.130;2022-12-29T13:03:35;9.52;;;4.35;;
48727;SDS011;34527;45.618;5.130;2022-12-29T13:12:07;10.68;;;3.50;;
48727;SDS011;34527;45.618;5.130;2022-12-29T13:14:56;5.38;;;3.47;;
48727;SDS011;34527;45.618;5.130;2022-12-29T13:17:31;8.43;;;3.80;;
48727;SDS011;34527;45.618;5.130;2022-12-29T13:27:51;8.40;;;3.28;;
48727;SDS011;34527;45.618;5.130;2022-12-29T13:30:22;12.38;;;3.97;;
48727;SDS011;34527;45.618;5.130;2022-12-29T13:36:14;10.35;;;3.60;;
48727;SDS011;34527;45.618;5.130;2022-12-29T13:41:54;9.13;;;3.85;;
48727;SDS011;34527;45.618;5.130;2022-12-29T13:44:27;9.57;;;4.20;;
48727;SDS011;34527;45.618;5.130;2022-12-29T13:47:00;10.82;;;3.58;;
48727;SDS011;34527;45.618;5.130;2022-12-29T13:49:31;12.85;;;3.65;;
48727;SDS011;34527;45.618;5.130;2022-12-29T13:52:02;5.43;;;3.65;;
48727;SDS011;34527;45.618;5.130;2022-12-29T13:54:44;7.00;;;3.65;;
48727;SDS011;34527;45.618;5.130;2022-12-29T14:00:22;8.18;;;3.45;;
48727;SDS011;34527;45.618;5.130;2022-12-29T14:05:36;9.60;;;4.03;;
48727;SDS011;34527;45.618;5.130;2022-12-29T14:08:03;7.95;;;3.53;;
48727;SDS011;34527;45.618;5.130;2022-12-29T14:13:10;10.43;;;3.70;;
48727;SDS011;34527;45.618;5.130;2022-12-29T14:15:53;9.30;;;3.83;;
48727;SDS011;34527;45.618;5.130;2022-12-29T14:18:26;11.75;;;3.85;;
48727;SDS011;34527;45.618;5.130;2022-12-29T14:20:57;8.77;;;3.50;;
48727;SDS011;34527;45.618;5.130;2022-12-29T14:23:40;13.90;;;3.70;;
48727;SDS011;34527;45.618;5.130;2022-12-29T14:26:17;8.48;;;3.70;;
48727;SDS011;34527;45.618;5.130;2022-12-29T14:28:56;11.13;;;4.05;;
48727;SDS011;34527;45.618;5.130;2022-12-29T14:31:40;7.55;;;3.88;;
48727;SDS011;34527;45.618;5.130;2022-12-29T14:39:24;8.40;;;4.22;;
48727;SDS011;34527;45.618;5.130;2022-12-29T14:42:20;14.05;;;4.13;;
48727;SDS011;34527;45.618;5.130;2022-12-29T14:45:05;9.93;;;3.90;;
48727;SDS011;34527;45.618;5.130;2022-12-29T14:47:52;10.20;;;4.00;;
48727;SDS011;34527;45.618;5.130;2022-12-29T14:50:23;13.18;;;4.68;;
48727;SDS011;34527;45.618;5.130;2022-12-29T15:04:35;10.50;;;4.18;;
48727;SDS011;34527;45.618;5.130;2022-12-29T15:07:00;12.88;;;4.65;;
48727;SDS011;34527;45.618;5.130;2022-12-29T15:12:40;9.18;;;4.03;;
48727;SDS011;34527;45.618;5.130;2022-12-29T15:17:43;10.68;;;4.32;;
48727;SDS011;34527;45.618;5.130;2022-12-29T15:20:28;11.60;;;4.53;;
48727;SDS011;34527;45.618;5.130;2022-12-29T15:23:17;11.20;;;4.65;;
48727;SDS011;34527;45.618;5.130;2022-12-29T15:26:15;12.05;;;4.32;;
48727;SDS011;34527;45.618;5.130;2022-12-29T15:31:04;11.00;;;4.03;;
48727;SDS011;34527;45.618;5.130;2022-12-29T15:33:37;7.80;;;4.22;;
48727;SDS011;34527;45.618;5.130;2022-12-29T15:36:08;7.57;;;4.53;;
48727;SDS011;34527;45.618;5.130;2022-12-29T15:38:37;13.50;;;4.97;;
48727;SDS011;34527;45.618;5.130;2022-12-29T15:41:12;7.40;;;4.38;;
48727;SDS011;34527;45.618;5.130;2022-12-29T15:44:11;10.00;;;4.63;;
48727;SDS011;34527;45.618;5.130;2022-12-29T15:46:45;12.63;;;4.30;;
48727;SDS011;34527;45.618;5.130;2022-12-29T15:49:12;11.80;;;4.07;;
48727;SDS011;34527;45.618;5.130;2022-12-29T15:51:40;6.60;;;4.32;;
48727;SDS011;34527;45.618;5.130;2022-12-29T15:54:06;12.80;;;4.32;;
48727;SDS011;34527;45.618;5.130;2022-12-29T15:56:41;14.77;;;5.15;;
48727;SDS011;34527;45.618;5.130;2022-12-29T15:59:24;10.13;;;5.35;;
48727;SDS011;34527;45.618;5.130;2022-12-29T16:01:56;15.85;;;5.32;;
48727;SDS011;34527;45.618;5.130;2022-12-29T16:04:24;12.77;;;5.13;;
48727;SDS011;34527;45.618;5.130;2022-12-29T16:07:02;11.55;;;4.70;;
48727;SDS011;34527;45.618;5.130;2022-12-29T16:09:33;12.68;;;4.82;;
48727;SDS011;34527;45.618;5.130;2022-12-29T16:12:04;9.98;;;4.28;;
48727;SDS011;34527;45.618;5.130;2022-12-29T16:14:33;13.98;;;5.35;;
48727;SDS011;34527;45.618;5.130;2022-12-29T16:17:09;8.40;;;4.72;;
48727;SDS011;34527;45.618;5.130;2022-12-29T16:19:41;9.88;;;5.13;;
48727;SDS011;34527;45.618;5.130;2022-12-29T16:22:20;9.30;;;4.70;;
48727;SDS011;34527;45.618;5.130;2022-12-29T16:25:38;12.20;;;5.10;;
48727;SDS011;34527;45.618;5.130;2022-12-29T16:27:49;10.68;;;4.78;;
48727;SDS011;34527;45.618;5.130;2022-12-29T16:32:50;11.20;;;4.80;;
48727;SDS011;34527;45.618;5.130;2022-12-29T16:35:19;14.38;;;5.30;;
48727;SDS011;34527;45.618;5.130;2022-12-29T16:37:48;10.10;;;4.97;;
48727;SDS011;34527;45.618;5.130;2022-12-29T16:40:32;11.27;;;4.97;;
48727;SDS011;34527;45.618;5.130;2022-12-29T16:43:01;9.68;;;4.65;;
48727;SDS011;34527;45.618;5.130;2022-12-29T16:50:38;10.27;;;4.97;;
48727;SDS011;34527;45.618;5.130;2022-12-29T16:53:07;10.88;;;5.30;;
48727;SDS011;34527;45.618;5.130;2022-12-29T16:55:55;13.45;;;5.65;;
48727;SDS011;34527;45.618;5.130;2022-12-29T16:58:27;13.35;;;5.25;;
48727;SDS011;34527;45.618;5.130;2022-12-29T17:00:56;12.30;;;5.47;;
48727;SDS011;34527;45.618;5.130;2022-12-29T17:03:35;12.23;;;5.18;;
48727;SDS011;34527;45.618;5.130;2022-12-29T17:06:04;16.10;;;6.30;;
48727;SDS011;34527;45.618;5.130;2022-12-29T17:08:40;14.73;;;5.32;;
48727;SDS011;34527;45.618;5.130;2022-12-29T17:11:13;8.82;;;3.67;;
48727;SDS011;34527;45.618;5.130;2022-12-29T17:17:17;4.18;;;2.53;;
48727;SDS011;34527;45.618;5.130;2022-12-29T17:19:53;4.15;;;2.30;;
48727;SDS011;34527;45.618;5.130;2022-12-29T17:22:27;6.53;;;2.08;;
48727;SDS011;34527;45.618;5.130;2022-12-29T17:24:54;3.83;;;2.05;;
48727;SDS011;34527;45.618;5.130;2022-12-29T17:27:33;5.00;;;2.40;;
48727;SDS011;34527;45.618;5.130;2022-12-29T17:30:04;4.65;;;1.90;;
48727;SDS011;34527;45.618;5.130;2022-12-29T17:32:35;6.07;;;2.10;;
48727;SDS011;34527;45.618;5.130;2022-12-29T17:35:01;4.28;;;1.98;;
48727;SDS011;34527;45.618;5.130;2022-12-29T17:37:28;3.95;;;2.40;;
48727;SDS011;34527;45.618;5.130;2022-12-29T17:40:02;4.90;;;2.58;;